ベルリン/テーゲル の空港の天気 - METARとTAF

ベルリン・テーゲル国際空港 ( EDDT / TXL ) - ドイツ ベルリン
飛行場実況気象(Metar)
観測時間05/21 00:20 CEST (05/20 22:20 UTC)
風向・風速東 2m/s
視程10km以上
天気現象
なし
気温16℃
湿度88%
気圧1002hPa
METAREDDT 202220Z 08004KT CAVOK 16/14 Q1002
過去の天気等 Google飛行場航空写真 Wunderground天気予報

過去48時間のMETAR

飛行場予報(TAF)
発表時間: 5/20 22:07 CEST (5/20 20:07 UTC)
予報対象時間: 20日22時 CEST ~ 21日20時 CEST
風向・風速東 3m/s
視程10km以上
少しの雲 雲底高度 910m
20日22時 CEST ~ 21日2時 CEST に一時的に
全天の8割程度の雲 雲底高度 240m
21日0時 CEST ~ 21日4時 CEST に徐々に
視程2000m
天気現象もや
21日2時 CEST ~ 21日7時 CEST に一時的に
視程500m
天気現象
全天の8割程度の雲 雲底高度 60m
21日6時 CEST ~ 21日10時 CEST に徐々に
視程10km以上
なし
TAF AMD EDDT 202007Z 2020/2118 09005KT 9999 FEW030
TEMPO 2020/2024 BKN008
BECMG 2022/2102 2000 BR
TEMPO 2100/2105 0500 FG BKN002
BECMG 2104/2108 CAVOK